Time;durP1;ratioP1;P1;durP2;ratioP2;P2;SDS_P1;SDS_P2;PMS_P1;PMS_P2;Temp;Humidity;BMP_temperature;BMP_pressure;BME280_temperature;BME280_humidity;BME280_pressure;Samples;Min_cycle;Max_cycle;Signal;HPM_P1;HPM_P2
2022/12/20 00:01:33;;;;;;;9.65;1.90;;;;;;;6.81;100.00;98902.88;4956905;28;20051;-82
2022/12/20 00:04:04;;;;;;;6.35;1.88;;;;;;;6.64;100.00;98875.13;4957256;28;20057;-82
2022/12/20 00:06:34;;;;;;;13.35;2.20;;;;;;;6.76;100.00;98917.88;4956529;29;20074;-82
2022/12/20 00:09:02;;;;;;;9.02;1.65;;;;;;;6.76;100.00;98915.25;4956091;29;20507;-82
2022/12/20 00:11:29;;;;;;;10.88;2.97;;;;;;;6.70;100.00;98913.00;4956012;29;20059;-81
2022/12/20 00:13:57;;;;;;;13.68;1.90;;;;;;;6.65;100.00;98908.84;4956955;29;20066;-82
2022/12/20 00:16:26;;;;;;;13.55;2.30;;;;;;;6.54;100.00;98885.16;4955979;28;20047;-82
2022/12/20 00:18:59;;;;;;;5.75;1.50;;;;;;;6.73;100.00;98923.22;4956025;29;20055;-82
2022/12/20 00:21:27;;;;;;;9.65;1.60;;;;;;;6.53;100.00;98890.44;4955369;29;20656;-82
2022/12/20 00:23:54;;;;;;;6.68;1.67;;;;;;;6.60;100.00;98920.41;4957005;28;20500;-81
2022/12/20 00:26:28;;;;;;;6.10;2.10;;;;;;;6.09;100.00;98852.72;4956394;28;20044;-82
2022/12/20 00:28:56;;;;;;;8.48;1.58;;;;;;;6.64;100.00;98932.34;4955863;29;20549;-82
2022/12/20 00:31:24;;;;;;;16.40;2.58;;;;;;;6.68;100.00;98962.47;4955032;29;20051;-81
2022/12/20 00:33:53;;;;;;;5.55;1.50;;;;;;;6.68;100.00;98972.88;4956541;28;20138;-81
2022/12/20 00:36:21;;;;;;;7.35;1.73;;;;;;;6.43;100.00;98961.09;4956432;29;20058;-82
2022/12/20 00:38:50;;;;;;;8.77;2.08;;;;;;;6.15;100.00;98914.81;4955449;28;20070;-81
2022/12/20 00:41:19;;;;;;;6.95;1.98;;;;;;;6.30;100.00;98941.78;4956210;29;20051;-82
2022/12/20 00:43:47;;;;;;;9.88;1.90;;;;;;;5.90;100.00;98870.97;4956322;28;20050;-82
2022/12/20 00:46:16;;;;;;;9.05;2.10;;;;;;;6.19;100.00;98923.28;4964146;28;20051;-82
2022/12/20 00:48:43;;;;;;;10.23;3.72;;;;;;;6.23;100.00;98943.00;4974617;28;20474;-81
2022/12/20 00:51:13;;;;;;;9.25;2.15;;;;;;;6.26;100.00;98948.91;4962023;28;20050;-82
2022/12/20 00:53:41;;;;;;;7.60;2.13;;;;;;;6.05;100.00;98919.59;4963003;28;20043;-82
2022/12/20 00:56:08;;;;;;;5.82;1.58;;;;;;;6.03;100.00;98899.81;4961076;28;20046;-82
2022/12/20 00:58:37;;;;;;;11.93;2.47;;;;;;;5.98;100.00;98910.41;4974784;28;20047;-82
2022/12/20 01:01:06;;;;;;;12.70;3.55;;;;;;;5.93;100.00;98898.53;4956900;28;20043;-82
2022/12/20 01:03:33;;;;;;;15.20;4.18;;;;;;;5.85;100.00;98899.72;4956231;28;20548;-82
2022/12/20 01:06:01;;;;;;;13.48;3.15;;;;;;;5.81;100.00;98876.59;4958210;29;20410;-82
2022/12/20 01:08:30;;;;;;;11.68;2.60;;;;;;;6.04;100.00;98909.28;4960069;28;20054;-81
2022/12/20 01:11:02;;;;;;;9.05;2.33;;;;;;;6.49;100.00;98959.94;4958248;29;20043;-82
2022/12/20 01:13:29;;;;;;;10.20;3.00;;;;;;;5.76;100.00;98843.03;4963078;28;20070;-83
2022/12/20 01:16:02;;;;;;;7.93;2.10;;;;;;;5.97;100.00;98887.13;4979631;28;20050;-82
2022/12/20 01:18:28;;;;;;;9.00;2.78;;;;;;;5.75;100.00;98866.50;4978369;28;20050;-81
2022/12/20 01:21:01;;;;;;;13.40;3.35;;;;;;;6.16;100.00;98928.63;4969054;28;20401;-82
2022/12/20 01:23:27;;;;;;;12.27;3.22;;;;;;;5.96;100.00;98894.06;4959857;28;20055;-82
2022/12/20 01:25:59;;;;;;;14.85;2.95;;;;;;;6.32;100.00;98952.97;4958398;29;20054;-82
2022/12/20 01:28:26;;;;;;;18.08;3.72;;;;;;;6.34;100.00;98971.94;4973364;28;20398;-81
2022/12/20 01:30:53;;;;;;;11.55;3.17;;;;;;;6.09;100.00;98915.09;4958948;28;20094;-81
2022/12/20 01:33:21;;;;;;;19.35;3.60;;;;;;;6.18;100.00;98938.06;4958542;28;20047;-81
2022/12/20 01:36:02;;;;;;;12.95;2.28;;;;;;;5.88;100.00;98885.78;4972358;28;20058;-82
2022/12/20 01:38:30;;;;;;;12.57;2.88;;;;;;;6.10;100.00;98934.13;4959102;28;20055;-82
2022/12/20 01:40:57;;;;;;;8.30;2.10;;;;;;;5.98;100.00;98914.78;4959884;28;20058;-81
2022/12/20 01:43:43;;;;;;;9.68;2.80;;;;;;;5.97;100.00;98920.91;4959364;28;20062;-80
2022/12/20 01:46:11;;;;;;;10.55;2.22;;;;;;;6.20;100.00;98959.59;4959194;28;20051;-82
2022/12/20 01:48:39;;;;;;;6.35;1.88;;;;;;;5.78;100.00;98903.53;4959245;28;20052;-82
2022/12/20 01:51:06;;;;;;;13.70;2.55;;;;;;;6.12;100.00;98955.69;4958361;28;20051;-84
2022/12/20 01:53:33;;;;;;;7.47;1.92;;;;;;;5.97;100.00;98931.28;4959076;29;20051;-82
2022/12/20 01:56:04;;;;;;;6.18;2.00;;;;;;;5.88;100.00;98920.38;4958794;28;20054;-82
2022/12/20 01:58:33;;;;;;;11.07;2.15;;;;;;;6.00;100.00;98931.13;4957991;29;20051;-82
2022/12/20 02:00:59;;;;;;;9.10;1.80;;;;;;;5.91;100.00;98921.97;4959439;29;20578;-82
2022/12/20 02:03:29;;;;;;;6.70;2.10;;;;;;;5.76;100.00;98909.72;4959328;28;20113;-81
2022/12/20 02:05:56;;;;;;;13.13;2.67;;;;;;;6.27;100.00;98984.38;4958988;28;20130;-82
2022/12/20 02:08:23;;;;;;;10.35;2.25;;;;;;;5.48;100.00;98865.13;4958870;28;20501;-82
2022/12/20 02:11:02;;;;;;;9.25;1.88;;;;;;;6.20;100.00;98980.41;4958343;29;20055;-83
2022/12/20 02:13:54;;;;;;;7.13;1.77;;;;;;;6.24;100.00;98970.69;4972858;28;20082;-82
2022/12/20 02:16:25;;;;;;;6.30;1.80;;;;;;;5.97;100.00;98939.91;4956924;28;20062;-81
2022/12/20 02:19:19;;;;;;;5.35;1.55;;;;;;;5.89;100.00;98931.59;4951292;29;20410;-80
2022/12/20 02:22:09;;;;;;;8.75;3.13;;;;;;;5.74;100.00;98899.41;4959277;28;20052;-81
2022/12/20 02:25:21;;;;;;;5.95;1.73;;;;;;;6.31;100.00;98982.47;4947460;29;20062;-81
2022/12/20 02:28:09;;;;;;;5.45;1.70;;;;;;;6.36;100.00;98977.91;4946792;28;20501;-81
2022/12/20 02:30:40;;;;;;;6.07;1.70;;;;;;;6.01;100.00;98943.22;4954761;28;20047;-81
2022/12/20 02:33:12;;;;;;;14.95;3.40;;;;;;;6.27;100.00;98978.34;4958160;29;20051;-81
2022/12/20 02:35:40;;;;;;;4.20;1.60;;;;;;;5.92;100.00;98934.06;4957834;29;20059;-81
2022/12/20 02:38:32;;;;;;;8.65;2.42;;;;;;;5.73;100.00;98900.31;4957444;28;20047;-82
2022/12/20 02:41:17;;;;;;;11.20;1.80;;;;;;;6.40;100.00;98989.81;4956878;28;20465;-81
2022/12/20 02:46:34;;;;;;;7.18;1.60;;;;;;;5.86;100.00;98910.97;4977157;28;20058;-81
2022/12/20 02:49:06;;;;;;;6.95;1.73;;;;;;;5.93;100.00;98894.16;4958396;28;20065;-82
2022/12/20 02:51:33;;;;;;;7.85;1.63;;;;;;;5.62;100.00;98893.03;4957748;28;20058;-81
2022/12/20 02:54:00;;;;;;;9.68;1.60;;;;;;;5.78;100.00;98915.69;4956857;29;20383;-81
2022/12/20 02:56:52;;;;;;;5.50;1.60;;;;;;;5.61;100.00;98903.47;4957964;28;20051;-81
2022/12/20 02:59:30;;;;;;;10.60;1.77;;;;;;;6.16;100.00;98980.59;4956056;28;20485;-81
2022/12/20 03:01:57;;;;;;;4.40;1.48;;;;;;;5.86;100.00;98923.94;4957107;28;20058;-81
2022/12/20 03:04:31;;;;;;;4.70;1.48;;;;;;;5.92;100.00;98954.84;4969974;28;20051;-81
2022/12/20 03:07:04;;;;;;;5.22;1.55;;;;;;;5.75;100.00;98900.25;4957337;28;20054;-81
2022/12/20 03:09:32;;;;;;;6.32;1.83;;;;;;;6.06;100.00;98946.44;4956821;29;20054;-81
2022/12/20 03:11:59;;;;;;;4.18;1.35;;;;;;;5.85;100.00;98917.09;4956070;29;20051;-81
2022/12/20 03:14:27;;;;;;;6.75;1.52;;;;;;;5.46;100.00;98843.59;4956406;28;20051;-81
2022/12/20 03:16:54;;;;;;;6.07;1.63;;;;;;;5.85;100.00;98909.28;4976845;28;20446;-81
2022/12/20 03:19:21;;;;;;;5.20;1.45;;;;;;;5.84;100.00;98900.66;4976328;28;20053;-81
2022/12/20 03:21:48;;;;;;;10.32;2.08;;;;;;;5.88;100.00;98893.56;4958816;28;20077;-81
2022/12/20 03:24:15;;;;;;;6.85;1.60;;;;;;;6.10;100.00;98900.34;4957937;28;20482;-81
2022/12/20 03:26:42;;;;;;;10.32;2.78;;;;;;;6.47;100.00;98947.00;4957455;28;20054;-81
2022/12/20 03:29:09;;;;;;;10.10;2.60;;;;;;;6.33;100.00;98905.25;4955772;28;20496;-81
2022/12/20 03:31:36;;;;;;;7.95;1.70;;;;;;;6.50;100.00;98921.78;4959723;28;20050;-81
2022/12/20 03:34:03;;;;;;;11.77;2.15;;;;;;;6.27;100.00;98889.97;4956503;29;20441;-80
2022/12/20 03:36:30;;;;;;;9.52;2.00;;;;;;;6.30;100.00;98902.81;4956006;29;20051;-81
2022/12/20 03:38:57;;;;;;;11.95;2.65;;;;;;;6.36;100.00;98888.69;4957093;28;20062;-81
2022/12/20 03:41:24;;;;;;;10.43;2.10;;;;;;;6.25;100.00;98895.25;4955771;29;20073;-82
2022/12/20 03:43:52;;;;;;;8.55;2.28;;;;;;;6.59;100.00;98952.53;4956830;28;20070;-81
2022/12/20 03:46:19;;;;;;;9.77;2.20;;;;;;;6.28;100.00;98902.03;4965560;28;20049;-81
2022/12/20 03:48:46;;;;;;;8.05;1.70;;;;;;;6.36;100.00;98889.53;4964998;28;20057;-81
2022/12/20 03:51:12;;;;;;;10.55;2.05;;;;;;;6.46;100.00;98882.09;4955575;29;20047;-81
2022/12/20 03:53:39;;;;;;;13.70;2.88;;;;;;;6.32;100.00;98882.81;4955883;28;20051;-81
2022/12/20 03:56:06;;;;;;;16.88;2.80;;;;;;;6.59;100.00;98880.56;4955753;29;20051;-81
2022/12/20 03:58:33;;;;;;;14.43;2.10;;;;;;;6.56;100.00;98880.72;4947899;29;20052;-81
2022/12/20 04:01:00;;;;;;;11.90;2.42;;;;;;;6.76;100.00;98878.84;4943757;29;20043;-80
2022/12/20 04:03:26;;;;;;;9.73;2.15;;;;;;;6.78;100.00;98877.88;4956915;28;20078;-81
2022/12/20 04:05:53;;;;;;;22.77;2.90;;;;;;;6.63;100.00;98871.69;4955674;29;20055;-80
2022/12/20 04:08:20;;;;;;;14.75;2.47;;;;;;;6.86;100.00;98893.06;4970732;28;20058;-80
2022/12/20 04:13:48;;;;;;;22.55;4.35;;;;;;;6.94;100.00;98929.09;4943630;29;20082;-80
2022/12/20 04:16:18;;;;;;;16.10;2.90;;;;;;;6.48;100.00;98830.88;4957123;28;20483;-80
2022/12/20 04:18:45;;;;;;;11.57;2.40;;;;;;;6.99;100.00;98912.34;4956120;29;20077;-80
2022/12/20 04:21:13;;;;;;;15.10;5.65;;;;;;;6.41;100.00;98825.16;4956661;28;20083;-81
2022/12/20 04:23:42;;;;;;;16.33;3.15;;;;;;;6.42;100.00;98808.59;4954989;29;20054;-80
2022/12/20 04:26:10;;;;;;;19.75;5.65;;;;;;;6.95;100.00;98905.59;4955764;29;20058;-80
2022/12/20 04:28:36;;;;;;;13.82;2.90;;;;;;;6.60;100.00;98851.03;4955060;29;20055;-80
2022/12/20 04:31:03;;;;;;;14.65;3.42;;;;;;;6.69;100.00;98862.72;4955998;28;20055;-80
2022/12/20 04:33:30;;;;;;;11.73;2.47;;;;;;;6.82;100.00;98868.16;4955333;29;20051;-80
2022/12/20 04:35:57;;;;;;;14.45;3.45;;;;;;;6.62;100.00;98874.34;4956082;28;20059;-81
2022/12/20 04:38:24;;;;;;;19.52;2.90;;;;;;;6.56;100.00;98835.69;4956894;28;20055;-80
2022/12/20 04:40:53;;;;;;;11.23;2.70;;;;;;;6.35;100.00;98820.25;4958531;29;20114;-81
2022/12/20 04:43:21;;;;;;;12.60;3.78;;;;;;;6.79;100.00;98900.34;4959044;29;20482;-81
2022/12/20 04:45:51;;;;;;;14.32;2.55;;;;;;;6.38;100.00;98864.28;4975175;28;20047;-82
2022/12/20 04:48:19;;;;;;;19.85;3.85;;;;;;;6.39;100.00;98860.78;4960135;28;20050;-82
2022/12/20 04:51:05;;;;;;;16.02;3.00;;;;;;;6.81;100.00;98939.28;4947818;29;20075;-82
2022/12/20 04:53:47;;;;;;;15.80;3.40;;;;;;;6.71;100.00;98897.31;4960348;28;20399;-81
2022/12/20 04:56:20;;;;;;;12.63;2.63;;;;;;;6.55;100.00;98862.59;4945947;29;20549;-82
2022/12/20 04:58:49;;;;;;;14.88;3.70;;;;;;;6.67;100.00;98879.34;4972409;28;20084;-81
2022/12/20 05:01:16;;;;;;;13.02;3.45;;;;;;;6.94;100.00;98913.47;4960787;28;20061;-82
2022/12/20 05:03:43;;;;;;;14.30;2.75;;;;;;;6.55;100.00;98870.38;4960585;28;20051;-82
2022/12/20 05:06:11;;;;;;;19.27;3.60;;;;;;;6.31;100.00;98846.47;4958393;29;20055;-82
2022/12/20 05:08:38;;;;;;;13.10;2.85;;;;;;;6.41;100.00;98865.88;4959845;28;20055;-81
2022/12/20 05:11:05;;;;;;;17.38;3.78;;;;;;;6.29;100.00;98830.97;4959494;28;20395;-81
2022/12/20 05:13:32;;;;;;;17.23;3.00;;;;;;;6.55;100.00;98886.84;4951226;29;20052;-82
2022/12/20 05:16:00;;;;;;;11.38;2.47;;;;;;;6.38;100.00;98851.28;4952698;29;20060;-82
2022/12/20 05:18:27;;;;;;;8.52;2.65;;;;;;;6.37;100.00;98856.56;4953407;28;20058;-82
2022/12/20 05:26:32;;;;;;;10.68;2.53;;;;;;;6.26;100.00;98860.53;4956295;29;20102;-82
2022/12/20 05:28:58;;;;;;;12.68;2.70;;;;;;;6.04;100.00;98832.19;4958128;29;20051;-81
2022/12/20 05:31:25;;;;;;;18.88;2.80;;;;;;;6.74;100.00;98950.94;4958958;28;20489;-81
2022/12/20 05:33:53;;;;;;;15.77;2.17;;;;;;;6.17;100.00;98866.19;4955020;29;20079;-81
2022/12/20 05:36:19;;;;;;;9.25;2.20;;;;;;;6.42;100.00;98914.38;4953274;29;20576;-82
2022/12/20 05:38:46;;;;;;;13.38;3.05;;;;;;;6.25;100.00;98887.47;4958494;29;20047;-82
2022/12/20 05:41:13;;;;;;;13.00;2.22;;;;;;;6.21;100.00;98880.72;4959073;28;20051;-81
2022/12/20 05:43:40;;;;;;;8.80;2.30;;;;;;;6.37;100.00;98911.16;4959520;28;20050;-81
2022/12/20 05:46:07;;;;;;;9.45;1.90;;;;;;;6.31;100.00;98888.91;4959521;28;20400;-81
2022/12/20 05:48:34;;;;;;;9.65;1.95;;;;;;;6.38;100.00;98920.66;4957900;29;20043;-81
2022/12/20 05:51:00;;;;;;;11.60;2.08;;;;;;;6.22;100.00;98905.78;4957531;28;20351;-81
2022/12/20 05:53:27;;;;;;;10.57;2.13;;;;;;;6.05;100.00;98901.41;4958964;28;20059;-82
2022/12/20 05:55:54;;;;;;;11.60;2.40;;;;;;;6.47;100.00;98962.63;4959435;29;20051;-82
2022/12/20 05:58:21;;;;;;;20.67;3.08;;;;;;;5.95;100.00;98873.31;4966259;28;20043;-81
2022/12/20 06:00:48;;;;;;;12.90;2.78;;;;;;;5.93;100.00;98875.97;4972396;28;20066;-81
2022/12/20 06:03:15;;;;;;;10.07;2.13;;;;;;;6.01;100.00;98883.47;4958311;29;20054;-82
2022/12/20 06:05:43;;;;;;;13.00;2.47;;;;;;;6.44;100.00;98946.31;4953328;28;20099;-82
2022/12/20 06:08:11;;;;;;;20.40;3.88;;;;;;;6.17;100.00;98914.72;4978804;28;20507;-82
2022/12/20 06:10:40;;;;;;;11.88;3.00;;;;;;;6.42;100.00;98935.16;4960543;28;20043;-82
2022/12/20 06:13:08;;;;;;;9.88;2.60;;;;;;;5.74;100.00;98839.69;4958639;28;20170;-82
2022/12/20 06:15:35;;;;;;;7.63;1.90;;;;;;;6.00;100.00;98887.81;4958767;28;20662;-82
2022/12/20 06:18:03;;;;;;;10.75;2.47;;;;;;;6.01;100.00;98871.31;4957786;29;20043;-82
2022/12/20 06:20:30;;;;;;;13.98;2.80;;;;;;;5.82;100.00;98852.28;4958135;29;20452;-82
2022/12/20 06:22:57;;;;;;;11.65;2.50;;;;;;;5.91;100.00;98875.22;4971792;28;20059;-82
2022/12/20 06:25:24;;;;;;;11.60;2.65;;;;;;;5.73;100.00;98843.19;4961216;29;20134;-84
2022/12/20 06:27:51;;;;;;;11.80;2.45;;;;;;;5.90;100.00;98857.97;4965221;29;20409;-84
2022/12/20 06:30:20;;;;;;;14.90;3.22;;;;;;;6.45;100.00;98941.06;4957622;29;20043;-83
2022/12/20 06:32:47;;;;;;;22.13;3.55;;;;;;;6.12;100.00;98906.31;4962426;28;20275;-82
2022/12/20 06:35:14;;;;;;;14.50;2.70;;;;;;;6.16;100.00;98898.31;4983850;28;20051;-83
2022/12/20 06:37:42;;;;;;;14.43;2.78;;;;;;;6.13;100.00;98880.25;4952417;29;20040;-82
2022/12/20 06:40:11;;;;;;;16.38;3.05;;;;;;;6.19;100.00;98895.53;4965192;28;20054;-83
2022/12/20 06:42:38;;;;;;;12.15;3.10;;;;;;;6.49;100.00;98944.34;4962740;28;20047;-84
2022/12/20 06:45:06;;;;;;;14.23;2.65;;;;;;;6.40;100.00;98922.22;4960806;28;20058;-83
2022/12/20 06:47:34;;;;;;;11.15;3.00;;;;;;;5.85;100.00;98829.59;4963505;28;20043;-82
2022/12/20 06:50:01;;;;;;;16.08;3.63;;;;;;;6.22;100.00;98886.78;4960149;28;20052;-82
2022/12/20 06:52:28;;;;;;;15.93;2.70;;;;;;;5.77;100.00;98818.78;4957173;29;20059;-82
2022/12/20 06:54:54;;;;;;;13.35;2.60;;;;;;;6.03;100.00;98853.88;4972356;28;20051;-83
2022/12/20 06:57:21;;;;;;;19.77;3.50;;;;;;;6.59;100.00;98947.34;4964198;28;20054;-82
2022/12/20 06:59:48;;;;;;;17.75;3.63;;;;;;;6.10;100.00;98871.78;4961445;28;20085;-83
2022/12/20 07:02:15;;;;;;;17.77;3.03;;;;;;;6.23;100.00;98883.22;4958021;28;20512;-82
2022/12/20 07:04:45;;;;;;;11.70;2.97;;;;;;;6.62;100.00;98926.38;4966619;28;20048;-82
2022/12/20 07:07:12;;;;;;;14.30;2.80;;;;;;;6.19;100.00;98866.13;4976349;28;20051;-83
2022/12/20 07:09:40;;;;;;;13.90;3.47;;;;;;;6.62;100.00;98939.38;4961696;28;20047;-83
2022/12/20 07:12:08;;;;;;;14.82;2.70;;;;;;;6.02;100.00;98852.22;4956334;28;20485;-83
2022/12/20 07:14:35;;;;;;;13.02;2.50;;;;;;;6.30;100.00;98901.97;4960417;28;20061;-82
2022/12/20 07:17:03;;;;;;;16.05;4.32;;;;;;;6.45;100.00;98922.84;4954264;29;20657;-82
2022/12/20 07:19:31;;;;;;;10.68;2.50;;;;;;;6.18;100.00;98883.47;4955072;29;20047;-83
2022/12/20 07:21:58;;;;;;;13.18;3.17;;;;;;;6.24;100.00;98866.75;4954580;29;20053;-82
2022/12/20 07:24:25;;;;;;;18.80;3.13;;;;;;;6.54;100.00;98941.53;4960196;28;20043;-83
2022/12/20 07:26:52;;;;;;;19.25;3.13;;;;;;;6.29;100.00;98901.13;4959805;29;20133;-82
2022/12/20 07:29:18;;;;;;;13.05;2.60;;;;;;;5.98;100.00;98875.81;4958606;29;20051;-82
2022/12/20 07:31:48;;;;;;;15.70;2.72;;;;;;;5.92;100.00;98861.34;4978193;28;20050;-83
2022/12/20 07:34:15;;;;;;;12.45;2.78;;;;;;;6.34;100.00;98921.69;4956720;29;20047;-82
2022/12/20 07:36:42;;;;;;;13.85;3.40;;;;;;;5.84;100.00;98846.13;4961742;28;20055;-80
2022/12/20 07:39:09;;;;;;;15.20;4.05;;;;;;;6.35;100.00;98955.41;4959132;28;20430;-82
2022/12/20 07:41:36;;;;;;;28.55;4.10;;;;;;;6.08;100.00;98884.84;4954747;29;20054;-82
2022/12/20 07:44:03;;;;;;;19.42;3.65;;;;;;;6.42;100.00;98941.19;4957134;28;20115;-82
2022/12/20 07:46:30;;;;;;;19.67;3.70;;;;;;;5.86;100.00;98851.22;4955724;29;20482;-82
2022/12/20 07:48:57;;;;;;;22.83;4.25;;;;;;;6.42;100.00;98910.00;4955616;29;20051;-82
2022/12/20 07:51:30;;;;;;;18.95;4.18;;;;;;;6.45;100.00;98924.63;4958421;28;20055;-82
2022/12/20 07:54:05;;;;;;;18.33;3.80;;;;;;;6.41;100.00;98895.34;4956102;29;20304;-81
2022/12/20 07:56:34;;;;;;;20.88;4.22;;;;;;;6.21;100.00;98885.91;4952003;29;20059;-82
2022/12/20 07:59:10;;;;;;;22.30;3.47;;;;;;;6.20;100.00;98886.84;4958937;29;20058;-81
2022/12/20 08:01:38;;;;;;;21.08;3.42;;;;;;;6.27;100.00;98870.03;4957848;29;20143;-82
2022/12/20 08:04:11;;;;;;;21.52;5.68;;;;;;;6.34;100.00;98888.75;4958494;28;20061;-82
2022/12/20 08:06:40;;;;;;;23.48;3.90;;;;;;;6.14;100.00;98870.69;4955950;29;20058;-82
2022/12/20 08:09:11;;;;;;;21.77;3.53;;;;;;;6.11;100.00;98863.03;4971346;28;20047;-82
2022/12/20 08:11:40;;;;;;;27.92;5.35;;;;;;;6.30;100.00;98900.22;4962888;28;20165;-82
2022/12/20 08:14:08;;;;;;;17.33;3.80;;;;;;;6.03;100.00;98851.28;4960215;28;20063;-84
2022/12/20 08:16:35;;;;;;;21.63;3.53;;;;;;;6.04;100.00;98870.31;4959755;29;20079;-82
2022/12/20 08:19:02;;;;;;;20.38;4.15;;;;;;;6.23;100.00;98891.91;4960164;28;20474;-82
2022/12/20 08:21:29;;;;;;;22.20;3.13;;;;;;;6.08;100.00;98864.06;4967500;28;20062;-81
2022/12/20 08:23:56;;;;;;;18.17;3.75;;;;;;;6.20;100.00;98886.00;4961023;28;20478;-81
2022/12/20 08:26:23;;;;;;;14.77;3.15;;;;;;;6.56;100.00;98945.72;4962604;28;20405;-82
2022/12/20 08:28:50;;;;;;;19.02;4.05;;;;;;;6.61;100.00;98950.69;4979680;28;20058;-84
2022/12/20 08:31:17;;;;;;;21.02;4.82;;;;;;;6.01;100.00;98849.69;4961369;28;20062;-82
2022/12/20 08:33:44;;;;;;;16.77;3.60;;;;;;;6.45;100.00;98915.06;4960837;29;20063;-83
2022/12/20 08:36:12;;;;;;;26.20;4.35;;;;;;;6.47;100.00;98934.00;4966087;28;20107;-83
2022/12/20 08:38:40;;;;;;;12.80;3.25;;;;;;;6.33;100.00;98894.88;4964829;29;20062;-83
2022/12/20 08:41:10;;;;;;;20.35;3.33;;;;;;;6.46;100.00;98908.94;4956923;28;20375;-83
2022/12/20 08:43:38;;;;;;;17.15;4.40;;;;;;;6.63;100.00;98949.69;4964004;28;20043;-83
2022/12/20 08:46:06;;;;;;;19.50;3.75;;;;;;;6.39;100.00;98917.09;4969043;28;20051;-83
2022/12/20 08:48:33;;;;;;;18.63;3.95;;;;;;;6.12;100.00;98869.94;4957458;28;20048;-82
2022/12/20 08:51:03;;;;;;;19.77;4.28;;;;;;;6.04;100.00;98873.75;4957860;29;20079;-82
2022/12/20 08:53:31;;;;;;;19.35;4.35;;;;;;;6.02;100.00;98849.63;4967089;28;20044;-83
2022/12/20 08:56:05;;;;;;;17.67;3.33;;;;;;;6.17;100.00;98874.00;4951130;29;20044;-83
2022/12/20 08:58:33;;;;;;;19.10;2.97;;;;;;;6.35;100.00;98905.19;4961259;28;20047;-83
2022/12/20 09:01:02;;;;;;;16.40;3.75;;;;;;;6.19;100.00;98905.09;4971640;28;20054;-83
2022/12/20 09:03:33;;;;;;;20.98;3.78;;;;;;;6.27;100.00;98914.22;4959402;28;20572;-83
2022/12/20 09:06:05;;;;;;;14.80;2.92;;;;;;;5.97;100.00;98843.78;4968056;28;20057;-82
2022/12/20 09:08:37;;;;;;;18.70;4.03;;;;;;;6.35;100.00;98913.81;4948913;29;20533;-82
2022/12/20 09:11:12;;;;;;;18.10;3.47;;;;;;;6.27;100.00;98915.97;4961384;28;20047;-82
2022/12/20 09:13:41;;;;;;;18.65;3.60;;;;;;;6.20;100.00;98894.63;4970652;28;20063;-82
2022/12/20 09:16:12;;;;;;;17.25;4.28;;;;;;;6.26;100.00;98893.50;4974505;28;20548;-83
2022/12/20 09:18:39;;;;;;;15.30;2.75;;;;;;;6.57;100.00;98942.22;4964043;28;20050;-82
2022/12/20 09:21:06;;;;;;;15.70;3.75;;;;;;;6.74;100.00;98962.16;4962213;28;20106;-82
2022/12/20 09:23:35;;;;;;;14.13;2.95;;;;;;;6.29;100.00;98895.09;4961189;28;20529;-82
2022/12/20 09:26:04;;;;;;;14.82;3.03;;;;;;;6.69;100.00;98973.72;4961471;28;20051;-82
2022/12/20 09:28:32;;;;;;;16.13;3.35;;;;;;;6.77;100.00;98953.38;4966651;28;20046;-83
2022/12/20 09:31:00;;;;;;;18.63;4.35;;;;;;;6.18;100.00;98870.50;4976419;28;20059;-83
2022/12/20 09:33:29;;;;;;;16.38;3.42;;;;;;;6.53;100.00;98922.47;4974021;28;20099;-83
2022/12/20 09:35:57;;;;;;;20.65;4.00;;;;;;;6.35;100.00;98874.81;4963381;28;20047;-83
2022/12/20 09:38:25;;;;;;;19.75;4.93;;;;;;;6.44;100.00;98918.56;4962932;28;20047;-83
2022/12/20 09:40:55;;;;;;;15.52;4.15;;;;;;;6.62;100.00;98898.63;4960892;29;20043;-82
2022/12/20 09:43:23;;;;;;;17.65;3.92;;;;;;;6.72;100.00;98917.19;4964303;28;20055;-82
2022/12/20 09:45:55;;;;;;;19.70;4.22;;;;;;;6.57;100.00;98871.16;4963517;28;20047;-82
2022/12/20 09:48:32;;;;;;;23.10;4.30;;;;;;;6.82;100.00;98897.59;4965631;28;20055;-83
2022/12/20 09:51:09;;;;;;;15.93;3.85;;;;;;;7.25;100.00;98961.34;4823376;28;20059;-84
2022/12/20 09:54:14;;;;;;;26.73;4.95;;;;;;;7.40;100.00;98960.53;4967714;28;20047;-83
2022/12/20 09:57:01;;;;;;;19.60;3.80;;;;;;;7.00;100.00;98901.00;4980870;28;20048;-83
2022/12/20 09:59:28;;;;;;;18.02;3.97;;;;;;;6.66;100.00;98878.50;4966594;29;20083;-83
2022/12/20 10:02:10;;;;;;;14.52;3.47;;;;;;;7.07;100.00;98877.28;4969038;29;20467;-83
2022/12/20 10:04:57;;;;;;;15.82;3.63;;;;;;;7.21;100.00;98924.22;4966249;29;20117;-84
2022/12/20 10:07:34;;;;;;;22.70;3.78;;;;;;;7.50;100.00;98982.56;4969055;28;20051;-83
2022/12/20 10:10:25;;;;;;;17.48;4.05;;;;;;;6.96;100.00;98890.84;4964946;29;20058;-82
2022/12/20 10:13:12;;;;;;;18.27;3.50;;;;;;;7.53;100.00;98974.59;4959629;28;20131;-85
2022/12/20 10:15:42;;;;;;;24.25;3.70;;;;;;;7.05;100.00;98900.78;4957824;28;20118;-83
2022/12/20 10:18:25;;;;;;;24.23;5.15;;;;;;;7.06;100.00;98909.41;4974289;28;20059;-84
2022/12/20 10:21:17;;;;;;;23.92;4.85;;;;;;;7.34;100.00;98947.84;4965749;29;20054;-82
2022/12/20 10:24:09;;;;;;;29.17;5.28;;;;;;;7.48;100.00;98942.75;4964928;29;20150;-83
2022/12/20 10:26:50;;;;;;;22.48;4.50;;;;;;;7.64;100.00;98958.38;4968846;28;20043;-84
2022/12/20 10:29:34;;;;;;;20.10;3.83;;;;;;;7.59;100.00;98929.97;4968386;28;20105;-84
2022/12/20 10:32:19;;;;;;;;;;;;;;;7.81;100.00;98986.16;4975710;28;20055;-84
2022/12/20 10:34:56;;;;;;;21.80;4.72;;;;;;;7.63;100.00;98924.59;4974289;28;19936;-82
2022/12/20 10:37:37;;;;;;;21.00;4.78;;;;;;;7.71;100.00;98920.66;4966973;28;20055;-83
2022/12/20 10:40:48;;;;;;;16.63;4.20;;;;;;;7.67;100.00;98919.16;4978572;28;20053;-84
2022/12/20 10:43:55;;;;;;;24.80;5.55;;;;;;;7.62;100.00;98922.94;4970576;29;20063;-85
2022/12/20 10:46:43;;;;;;;14.45;3.75;;;;;;;7.74;100.00;98909.25;4980019;28;20138;-85
2022/12/20 10:49:35;;;;;;;21.08;4.32;;;;;;;8.25;100.00;98984.59;4970420;29;20043;-85
2022/12/20 10:52:17;;;;;;;24.73;4.53;;;;;;;7.77;100.00;98903.84;4970112;28;20082;-84
2022/12/20 10:54:57;;;;;;;14.65;3.58;;;;;;;7.91;100.00;98910.91;4963161;29;20063;-84
2022/12/20 10:57:41;;;;;;;14.80;2.58;;;;;;;8.14;100.00;98933.06;4967790;29;20138;-85
2022/12/20 11:00:29;;;;;;;16.52;3.97;;;;;;;7.18;100.00;98804.66;4969866;29;20061;-84
2022/12/20 11:03:12;;;;;;;13.25;3.20;;;;;;;8.52;100.00;98990.91;4943880;29;20059;-85
2022/12/20 11:05:58;;;;;;;19.13;3.08;;;;;;;8.12;100.00;98914.91;4970533;29;20086;-83
2022/12/20 11:08:39;;;;;;;10.45;2.83;;;;;;;8.36;100.00;98966.59;4971362;28;20078;-84
2022/12/20 11:11:23;;;;;;;22.77;3.88;;;;;;;7.85;100.00;98922.50;4971485;28;20216;-85
2022/12/20 11:14:14;;;;;;;17.55;2.97;;;;;;;7.75;100.00;98854.44;4969943;29;20077;-81
2022/12/20 11:16:59;;;;;;;22.85;5.28;;;;;;;8.49;100.00;99000.69;4964750;29;20027;-85
2022/12/20 11:19:46;;;;;;;23.67;4.20;;;;;;;8.28;100.00;98950.53;4967440;29;20070;-84
2022/12/20 11:22:32;;;;;;;14.50;3.30;;;;;;;8.60;100.00;98989.63;4969642;29;20031;-85
2022/12/20 11:25:35;;;;;;;20.85;3.55;;;;;;;8.64;100.00;98986.78;4966175;29;20048;-85
2022/12/20 11:28:25;;;;;;;14.70;3.47;;;;;;;8.43;100.00;98964.50;4970487;29;20039;-85
2022/12/20 11:31:20;;;;;;;15.52;3.47;;;;;;;8.67;100.00;98972.69;4968831;29;20058;-84
2022/12/20 11:34:36;;;;;;;15.50;3.15;;;;;;;8.44;100.00;98959.19;4974102;28;20034;-84
2022/12/20 11:37:23;;;;;;;15.30;3.03;;;;;;;8.12;100.00;98921.88;4970856;28;20054;-85
2022/12/20 11:40:29;;;;;;;17.98;3.30;;;;;;;8.37;100.00;98944.78;4970864;29;20062;-85
2022/12/20 11:43:38;;;;;;;16.73;3.47;;;;;;;8.26;100.00;98976.69;4951267;29;20067;-85
2022/12/20 11:46:32;;;;;;;13.77;3.03;;;;;;;8.35;100.00;98981.38;4963867;29;20122;-85
2022/12/20 11:50:07;;;;;;;16.42;4.32;;;;;;;8.16;100.00;98960.75;4971592;28;20059;-85
2022/12/20 11:53:02;;;;;;;18.92;4.05;;;;;;;7.86;100.00;98892.06;4950556;28;20063;-85
2022/12/20 11:55:48;;;;;;;16.88;3.10;;;;;;;8.26;100.00;98952.41;4971802;28;20038;-85
2022/12/20 11:58:47;;;;;;;23.48;4.78;;;;;;;7.71;100.00;98906.81;4969929;29;20038;-85
2022/12/20 12:01:39;;;;;;;16.05;3.75;;;;;;;7.98;100.00;98910.50;4960420;29;20058;-84
2022/12/20 12:04:31;;;;;;;21.73;4.95;;;;;;;7.96;100.00;98940.16;4952309;29;20107;-85